createdAt,value
2022-11-27T00:01:46.881Z,101476.59
2022-11-27T00:07:38.735Z,101475.06
2022-11-27T00:13:31.013Z,101475.50
2022-11-27T00:19:23.931Z,101473.81
2022-11-27T00:25:15.957Z,101485.22
2022-11-27T00:31:19.217Z,101493.78
2022-11-27T00:37:12.481Z,101498.03
2022-11-27T00:43:05.283Z,101511.06
2022-11-27T00:48:59.480Z,101501.06
2022-11-27T00:54:51.761Z,101499.25
2022-11-27T01:00:44.213Z,101499.13
2022-11-27T01:06:37.441Z,101506.09
2022-11-27T01:12:29.882Z,101491.84
2022-11-27T01:18:22.150Z,101500.59
2022-11-27T01:24:16.692Z,101510.59
2022-11-27T01:30:09.822Z,101496.56
2022-11-27T01:36:05.161Z,101492.84
2022-11-27T01:41:57.341Z,101486.44
2022-11-27T01:48:01.841Z,101497.25
2022-11-27T01:53:55.114Z,101492.97
2022-11-27T01:59:49.821Z,101483.72
2022-11-27T02:05:41.928Z,101493.56
2022-11-27T02:11:39.178Z,101496.75
2022-11-27T02:17:42.421Z,101489.25
2022-11-27T02:23:43.965Z,101494.75
2022-11-27T02:29:37.007Z,101494.91
2022-11-27T02:35:37.742Z,101499.13
2022-11-27T02:41:39.662Z,101496.75
2022-11-27T02:47:32.822Z,101502.81
2022-11-27T02:53:38.053Z,101487.31
2022-11-27T02:59:33.733Z,101484.97
2022-11-27T03:05:33.012Z,101482.13
2022-11-27T03:11:26.872Z,101479.59
2022-11-27T03:18:05.302Z,101475.78
2022-11-27T03:23:58.723Z,101477.50
2022-11-27T03:30:05.212Z,101480.13
2022-11-27T03:35:58.462Z,101479.13
2022-11-27T03:42:15.933Z,101477.31
2022-11-27T03:48:14.252Z,101461.72
2022-11-27T03:54:15.213Z,101458.09
2022-11-27T04:00:09.642Z,101455.59
2022-11-27T04:06:02.165Z,101456.44
2022-11-27T04:11:54.584Z,101450.63
2022-11-27T04:17:47.624Z,101440.88
2022-11-27T04:23:41.082Z,101445.28
2022-11-27T04:29:33.723Z,101441.69
2022-11-27T04:35:27.737Z,101429.56
2022-11-27T04:41:20.721Z,101429.81
2022-11-27T04:47:13.712Z,101434.13
2022-11-27T04:53:06.760Z,101429.00
2022-11-27T04:58:59.649Z,101424.34
2022-11-27T05:04:51.867Z,101426.03
2022-11-27T05:10:44.797Z,101425.63
2022-11-27T05:16:38.175Z,101431.09
2022-11-27T05:22:30.818Z,101435.72
2022-11-27T05:28:26.878Z,101449.66
2022-11-27T05:34:19.852Z,101444.97
2022-11-27T05:40:13.126Z,101445.56
2022-11-27T05:46:10.845Z,101459.41
2022-11-27T05:52:03.892Z,101462.16
2022-11-27T05:57:56.846Z,101458.22
2022-11-27T06:03:49.004Z,101458.03
2022-11-27T06:09:42.040Z,101459.41
2022-11-27T06:15:37.548Z,101461.94
2022-11-27T06:21:30.166Z,101468.97
2022-11-27T06:27:23.884Z,101467.72
2022-11-27T06:33:16.977Z,101466.72
2022-11-27T06:39:12.286Z,101481.41
2022-11-27T06:45:05.452Z,101481.63
2022-11-27T06:51:05.606Z,101491.53
2022-11-27T06:56:58.627Z,101484.97
2022-11-27T07:02:53.686Z,101485.09
2022-11-27T07:08:46.368Z,101487.13
2022-11-27T07:14:39.008Z,101489.75
2022-11-27T07:20:32.547Z,101491.47
2022-11-27T07:26:27.856Z,101486.25
2022-11-27T07:32:20.387Z,101478.34
2022-11-27T07:38:12.777Z,101470.97
2022-11-27T07:44:05.216Z,101473.19
2022-11-27T07:50:00.547Z,101470.50
2022-11-27T07:55:53.961Z,101475.69
2022-11-27T08:01:45.637Z,101470.59
2022-11-27T08:07:38.220Z,101478.66
2022-11-27T08:13:31.532Z,101470.31
2022-11-27T08:19:24.657Z,101466.22
2022-11-27T08:25:17.347Z,101463.09
2022-11-27T08:31:13.541Z,101455.44
2022-11-27T08:37:07.429Z,101457.34
2022-11-27T08:43:00.961Z,101464.16
2022-11-27T08:48:53.211Z,101466.81
2022-11-27T08:54:45.737Z,101474.13
2022-11-27T09:00:39.653Z,101471.69
2022-11-27T09:06:35.097Z,101476.66
2022-11-27T09:12:29.049Z,101469.69
2022-11-27T09:18:20.890Z,101464.81
2022-11-27T09:24:13.448Z,101475.84
2022-11-27T09:30:08.163Z,101475.03
2022-11-27T09:36:03.520Z,101465.50
2022-11-27T09:41:59.904Z,101447.47
2022-11-27T09:48:06.119Z,101441.72
2022-11-27T09:54:03.001Z,101438.88
2022-11-27T10:00:01.707Z,101434.84
2022-11-27T10:05:57.147Z,101422.63
2022-11-27T10:12:10.786Z,101416.53
2022-11-27T10:18:06.654Z,101405.03
2022-11-27T10:24:24.689Z,101403.34
2022-11-27T10:30:20.957Z,101397.69
2022-11-27T10:36:24.526Z,101393.53
2022-11-27T10:42:49.200Z,101381.53
2022-11-27T10:48:41.941Z,101378.28
2022-11-27T10:54:37.842Z,101373.38
2022-11-27T11:00:30.847Z,101368.00
2022-11-27T11:06:27.212Z,101365.81
2022-11-27T11:12:23.590Z,101359.56
2022-11-27T11:18:20.959Z,101356.66
2022-11-27T11:24:21.777Z,101353.28
2022-11-27T11:30:28.847Z,101343.72
2022-11-27T11:36:23.064Z,101350.69
2022-11-27T11:42:30.196Z,101334.25
2022-11-27T11:48:25.417Z,101334.53
2022-11-27T11:54:28.296Z,101320.16
2022-11-27T12:00:30.173Z,101326.34
2022-11-27T12:06:45.820Z,101337.09
2022-11-27T12:13:04.832Z,101330.31
2022-11-27T12:19:16.205Z,101324.53
2022-11-27T12:25:26.879Z,101322.00
2022-11-27T12:31:41.182Z,101326.72
2022-11-27T12:37:51.189Z,101326.94
2022-11-27T12:43:56.143Z,101326.94
2022-11-27T12:49:56.401Z,101318.59
2022-11-27T12:56:08.486Z,101320.84
2022-11-27T13:02:11.346Z,101322.53
2022-11-27T13:08:22.858Z,101301.91
2022-11-27T13:14:20.039Z,101309.41
2022-11-27T13:20:20.715Z,101305.81
2022-11-27T13:26:26.536Z,101286.28
2022-11-27T13:32:25.820Z,101284.56
2022-11-27T13:38:25.180Z,101271.44
2022-11-27T13:44:26.931Z,101265.78
2022-11-27T13:50:28.205Z,101266.25
2022-11-27T13:56:31.591Z,101259.00
2022-11-27T14:02:25.510Z,101263.09
2022-11-27T14:08:51.799Z,101251.78
2022-11-27T14:14:45.739Z,101260.44
2022-11-27T14:21:22.139Z,101244.81
2022-11-27T14:27:23.748Z,101246.66
2022-11-27T14:33:23.331Z,101244.44
2022-11-27T14:39:30.300Z,101233.56
2022-11-27T14:45:24.161Z,101226.22
2022-11-27T14:51:20.069Z,101227.03
2022-11-27T14:57:19.867Z,101230.13
2022-11-27T15:03:18.202Z,101234.88
2022-11-27T15:09:33.575Z,101224.25
2022-11-27T15:15:29.234Z,101229.72
2022-11-27T15:21:25.924Z,101219.34
2022-11-27T15:27:21.199Z,101210.84
2022-11-27T15:33:29.819Z,101211.88
2022-11-27T15:39:38.500Z,101211.06
2022-11-27T15:45:33.383Z,101214.78
2022-11-27T15:51:26.365Z,101220.16
2022-11-27T15:57:19.092Z,101225.47
2022-11-27T16:03:11.612Z,101218.41
2022-11-27T16:09:05.360Z,101220.31
2022-11-27T16:14:57.389Z,101212.25
2022-11-27T16:20:49.549Z,101187.22
2022-11-27T16:26:42.471Z,101192.19
2022-11-27T16:32:41.358Z,101192.50
2022-11-27T16:38:34.448Z,101190.34
2022-11-27T16:44:27.039Z,101175.41
2022-11-27T16:50:19.369Z,101173.81
2022-11-27T16:56:13.501Z,101169.53
2022-11-27T17:02:06.524Z,101166.38
2022-11-27T17:07:59.651Z,101149.63
2022-11-27T17:13:56.397Z,101142.69
2022-11-27T17:19:49.746Z,101134.53
2022-11-27T17:25:43.750Z,101137.13
2022-11-27T17:31:37.342Z,101136.50
2022-11-27T17:37:30.559Z,101136.41
2022-11-27T17:43:22.799Z,101130.31
2022-11-27T17:49:16.489Z,101120.56
2022-11-27T17:55:19.640Z,101124.19
2022-11-27T18:01:18.092Z,101128.75
2022-11-27T18:07:10.653Z,101122.44
2022-11-27T18:13:03.822Z,101124.19
2022-11-27T18:18:57.148Z,101126.13
2022-11-27T18:24:49.700Z,101120.63
2022-11-27T18:30:41.609Z,101107.31
2022-11-27T18:36:34.809Z,101109.47
2022-11-27T18:42:27.573Z,101104.19
2022-11-27T18:48:21.855Z,101094.47
2022-11-27T18:54:14.889Z,101091.88
2022-11-27T19:00:08.969Z,101084.97
2022-11-27T19:06:02.873Z,101089.66
2022-11-27T19:11:56.023Z,101085.44
2022-11-27T19:17:48.559Z,101077.19
2022-11-27T19:23:42.016Z,101075.53
2022-11-27T19:29:35.038Z,101069.50
2022-11-27T19:35:27.549Z,101053.66
2022-11-27T19:41:20.094Z,101062.34
2022-11-27T19:47:12.559Z,101059.50
2022-11-27T19:53:07.241Z,101056.44
2022-11-27T19:59:02.128Z,101041.81
2022-11-27T20:04:54.572Z,101040.38
2022-11-27T20:10:50.614Z,101045.84
2022-11-27T20:16:42.884Z,101056.56
2022-11-27T20:22:36.780Z,101043.81
2022-11-27T20:28:29.313Z,101028.72
2022-11-27T20:34:22.701Z,101027.19
2022-11-27T20:40:15.149Z,101021.22
2022-11-27T20:46:08.107Z,101015.28
2022-11-27T20:52:03.721Z,101009.50
2022-11-27T20:57:56.180Z,100992.19
2022-11-27T21:03:51.541Z,100982.94
2022-11-27T21:09:44.385Z,100980.91
2022-11-27T21:15:37.818Z,100979.97
2022-11-27T21:21:30.718Z,100976.84
2022-11-27T21:27:24.220Z,100971.09
2022-11-27T21:33:17.344Z,100968.78
2022-11-27T21:39:13.215Z,100973.66
2022-11-27T21:45:06.299Z,100970.63
2022-11-27T21:50:44.779Z,100967.47
2022-11-27T21:56:40.438Z,100968.44
2022-11-27T22:02:33.379Z,100966.84
2022-11-27T22:08:38.526Z,100974.19
2022-11-27T22:14:31.299Z,100960.53
2022-11-27T22:20:24.039Z,100962.44
2022-11-27T22:26:18.739Z,100967.25
2022-11-27T22:32:12.308Z,100964.88
2022-11-27T22:38:04.441Z,100954.28
2022-11-27T22:43:59.058Z,100954.97
2022-11-27T22:49:52.358Z,100940.00
2022-11-27T22:55:44.089Z,100939.59
2022-11-27T23:01:37.519Z,100934.84
2022-11-27T23:07:30.414Z,100928.03
2022-11-27T23:13:22.442Z,100932.00
2022-11-27T23:19:14.413Z,100927.16
2022-11-27T23:25:06.948Z,100932.16
2022-11-27T23:31:28.085Z,100923.63
2022-11-27T23:37:17.479Z,100915.03
2022-11-27T23:43:09.587Z,100907.19
2022-11-27T23:49:01.472Z,100909.41
2022-11-27T23:54:53.490Z,100906.31
